Wetterdaten: aktuell Montag, 20.08.2018 05:30
Datum Zeit Temp. Feuchte Luftdruck Regen Wind Richtung Richtung Sonnenschein UV Solar Windchill Windben
20.08.2018 05:30 16.2 C 90 % 1020.2 hPa 0.0 mm 2.3 km/h O-NO 76 0 min 0.0 UV-I 0.0 W/m 16.2 C 4.8 km/h
20.08.2018 05:20 16.4 C 89 % 1020.3 hPa 0.0 mm 0.8 km/h SO 140 0 min 0.0 UV-I 0.0 W/m 16.4 C 3.2 km/h
20.08.2018 05:10 16.2 C 90 % 1020.3 hPa 0.0 mm 1.2 km/h SO 140 0 min 0.0 UV-I 0.0 W/m 16.2 C 3.2 km/h
20.08.2018 05:00 16.3 C 89 % 1020.3 hPa 0.0 mm 1.2 km/h SO 140 0 min 0.0 UV-I 0.0 W/m 16.3 C 3.2 km/h
20.08.2018 04:50 16.6 C 89 % 1020.3 hPa 0.0 mm 1.4 km/h SO 140 0 min 0.0 UV-I 0.0 W/m 16.6 C 3.2 km/h
20.08.2018 04:40 16.4 C 89 % 1020.4 hPa 0.0 mm 2.1 km/h S-SO 161 0 min 0.0 UV-I 0.0 W/m 16.4 C 3.2 km/h
20.08.2018 04:30 16.8 C 87 % 1020.4 hPa 0.0 mm 0.8 km/h S-SO 161 0 min 0.0 UV-I 0.0 W/m 16.8 C 3.2 km/h
20.08.2018 04:20 17.2 C 86 % 1020.5 hPa 0.0 mm 0.2 km/h S 182 0 min 0.0 UV-I 0.0 W/m 17.2 C 1.6 km/h
20.08.2018 04:10 17.1 C 87 % 1020.4 hPa 0.0 mm 1.2 km/h S 182 0 min 0.0 UV-I 0.0 W/m 17.1 C 3.2 km/h
20.08.2018 04:00 16.9 C 88 % 1020.4 hPa 0.0 mm 0.7 km/h O 84 0 min 0.0 UV-I 0.0 W/m 16.9 C 3.2 km/h
20.08.2018 03:50 17.1 C 87 % 1020.5 hPa 0.0 mm 0.5 km/h O 84 0 min 0.0 UV-I 0.0 W/m 17.1 C 3.2 km/h
20.08.2018 03:40 17.3 C 86 % 1020.5 hPa 0.0 mm 2.0 km/h O 84 0 min 0.0 UV-I 0.0 W/m 17.3 C 3.2 km/h
20.08.2018 03:30 17.3 C 87 % 1020.4 hPa 0.0 mm 1.4 km/h O 84 0 min 0.0 UV-I 0.0 W/m 17.3 C 3.2 km/h
20.08.2018 03:20 17.4 C 86 % 1020.4 hPa 0.0 mm 1.2 km/h O 84 0 min 0.0 UV-I 0.0 W/m 17.4 C 3.2 km/h
20.08.2018 03:10 17.4 C 86 % 1020.5 hPa 0.0 mm 0.2 km/h O 84 0 min 0.0 UV-I 0.0 W/m 17.4 C 3.2 km/h
20.08.2018 03:00 17.2 C 87 % 1020.4 hPa 0.0 mm 0.9 km/h O 84 0 min 0.0 UV-I 0.0 W/m 17.2 C 3.2 km/h
20.08.2018 02:50 16.9 C 87 % 1020.4 hPa 0.0 mm 0.9 km/h O 84 0 min 0.0 UV-I 0.0 W/m 16.9 C 3.2 km/h
20.08.2018 02:40 17.0 C 86 % 1020.4 hPa 0.0 mm 0.8 km/h O 84 0 min 0.0 UV-I 0.0 W/m 17.0 C 3.2 km/h
20.08.2018 02:30 17.2 C 86 % 1020.4 hPa 0.0 mm 1.5 km/h O 84 0 min 0.0 UV-I 0.0 W/m 17.2 C 3.2 km/h
20.08.2018 02:20 17.2 C 85 % 1020.4 hPa 0.0 mm 1.4 km/h O 84 0 min 0.0 UV-I 0.0 W/m 17.2 C 4.8 km/h
20.08.2018 02:10 17.4 C 85 % 1020.4 hPa 0.0 mm 2.4 km/h O 84 0 min 0.0 UV-I 0.0 W/m 17.4 C 4.8 km/h
20.08.2018 02:00 17.6 C 85 % 1020.5 hPa 0.0 mm 1.5 km/h O 88 0 min 0.0 UV-I 0.0 W/m 17.6 C 4.8 km/h
20.08.2018 01:50 17.6 C 85 % 1020.4 hPa 0.0 mm 0.8 km/h O 88 0 min 0.0 UV-I 0.0 W/m 17.6 C 3.2 km/h
20.08.2018 01:40 17.6 C 85 % 1020.5 hPa 0.0 mm 0.3 km/h O 88 0 min 0.0 UV-I 0.0 W/m 17.6 C 1.6 km/h
20.08.2018 01:30 17.8 C 84 % 1020.4 hPa 0.0 mm 1.9 km/h O 88 0 min 0.0 UV-I 0.0 W/m 17.8 C 4.8 km/h
20.08.2018 01:20 18.1 C 84 % 1020.5 hPa 0.0 mm 0.7 km/h O 96 0 min 0.0 UV-I 0.0 W/m 18.1 C 3.2 km/h
20.08.2018 01:10 18.1 C 83 % 1020.6 hPa 0.0 mm 0.8 km/h O 96 0 min 0.0 UV-I 0.0 W/m 18.1 C 3.2 km/h
20.08.2018 01:00 18.2 C 83 % 1020.6 hPa 0.0 mm 1.8 km/h O 96 0 min 0.0 UV-I 0.0 W/m 18.2 C 3.2 km/h
20.08.2018 00:50 18.4 C 82 % 1020.5 hPa 0.0 mm 3.3 km/h O 96 0 min 0.0 UV-I 0.0 W/m 18.4 C 4.8 km/h
20.08.2018 00:40 18.6 C 81 % 1020.6 hPa 0.0 mm 3.0 km/h O-SO 103 0 min 0.0 UV-I 0.0 W/m 18.6 C 6.4 km/h
20.08.2018 00:30 18.7 C 81 % 1020.5 hPa 0.0 mm 2.7 km/h O-NO 73 0 min 0.0 UV-I 0.0 W/m 18.7 C 6.4 km/h
20.08.2018 00:20 18.8 C 81 % 1020.5 hPa 0.0 mm 3.9 km/h O 97 0 min 0.0 UV-I 0.0 W/m 18.8 C 4.8 km/h
20.08.2018 00:10 19.2 C 79 % 1020.5 hPa 0.0 mm 1.6 km/h O-NO 59 0 min 0.0 UV-I 0.0 W/m 19.2 C 3.2 km/h
20.08.2018 00:00 19.4 C 77 % 1020.6 hPa 0.0 mm 0.7 km/h O-NO 59 0 min 0.0 UV-I 0.0 W/m 19.4 C 3.2 km/h
19.08.2018 23:50 19.4 C 78 % 1020.6 hPa 0.0 mm 1.9 km/h O-NO 59 0 min 0.0 UV-I 0.0 W/m 19.4 C 4.8 km/h
19.08.2018 23:40 19.7 C 77 % 1020.6 hPa 0.0 mm 0.9 km/h W 265 0 min 0.0 UV-I 0.0 W/m 19.7 C 3.2 km/h
19.08.2018 23:30 19.9 C 76 % 1020.4 hPa 0.0 mm 1.3 km/h W 265 0 min 0.0 UV-I 0.0 W/m 19.9 C 6.4 km/h
19.08.2018 23:20 19.8 C 76 % 1020.4 hPa 0.0 mm 0.0 km/h O-NO 74 0 min 0.0 UV-I 0.0 W/m 19.8 C 0.0 km/h
19.08.2018 23:10 20.0 C 75 % 1020.4 hPa 0.0 mm 0.0 km/h O-NO 74 0 min 0.0 UV-I 0.0 W/m 20.0 C 0.0 km/h
19.08.2018 23:00 20.3 C 74 % 1020.3 hPa 0.0 mm 0.3 km/h SO 140 0 min 0.0 UV-I 0.0 W/m 20.3 C 3.2 km/h
19.08.2018 22:50 20.7 C 73 % 1020.3 hPa 0.0 mm 0.0 km/h SO 140 0 min 0.0 UV-I 0.0 W/m 20.7 C 0.0 km/h
19.08.2018 22:40 20.8 C 72 % 1020.2 hPa 0.0 mm 0.8 km/h SO 140 0 min 0.0 UV-I 0.0 W/m 20.8 C 3.2 km/h
19.08.2018 22:30 20.9 C 71 % 1020.3 hPa 0.0 mm 0.3 km/h SO 140 0 min 0.0 UV-I 0.0 W/m 20.9 C 1.6 km/h
19.08.2018 22:20 21.4 C 69 % 1020.2 hPa 0.0 mm 1.7 km/h SO 140 0 min 0.0 UV-I 0.0 W/m 21.4 C 3.2 km/h
19.08.2018 22:10 21.6 C 70 % 1020.2 hPa 0.0 mm 0.7 km/h SO 140 0 min 0.0 UV-I 0.0 W/m 21.6 C 3.2 km/h
19.08.2018 22:00 22.1 C 66 % 1020.1 hPa 0.0 mm 1.1 km/h S 171 0 min 0.0 UV-I 0.0 W/m 22.1 C 3.2 km/h
19.08.2018 21:50 22.8 C 63 % 1020.1 hPa 0.0 mm 1.4 km/h S 171 0 min 0.0 UV-I 0.0 W/m 22.8 C 6.4 km/h
19.08.2018 21:40 22.6 C 65 % 1020.1 hPa 0.0 mm 1.3 km/h S 171 0 min 0.0 UV-I 0.0 W/m 22.6 C 3.2 km/h
19.08.2018 21:30 23.5 C 60 % 1020.1 hPa 0.0 mm 1.6 km/h S-SW 197 0 min 0.0 UV-I 0.0 W/m 23.5 C 4.8 km/h
19.08.2018 21:20 23.6 C 59 % 1020.2 hPa 0.0 mm 1.8 km/h S-SO 165 0 min 0.0 UV-I 0.0 W/m 23.6 C 6.4 km/h
19.08.2018 21:10 23.9 C 60 % 1020.1 hPa 0.0 mm 1.5 km/h SW 217 0 min 0.0 UV-I 0.0 W/m 23.9 C 3.2 km/h
19.08.2018 21:00 24.1 C 57 % 1020.1 hPa 0.0 mm 1.9 km/h SW 217 0 min 0.0 UV-I 0.0 W/m 24.1 C 3.2 km/h
19.08.2018 20:50 24.2 C 58 % 1020.0 hPa 0.0 mm 0.5 km/h W 281 0 min 0.0 UV-I 0.0 W/m 24.2 C 3.2 km/h
19.08.2018 20:40 25.4 C 54 % 1019.9 hPa 0.0 mm 1.6 km/h W 281 0 min 0.0 UV-I 0.0 W/m 25.4 C 4.8 km/h
19.08.2018 20:30 25.9 C 51 % 1019.8 hPa 0.0 mm 3.3 km/h W-SW 258 0 min 0.0 UV-I 0.0 W/m 25.9 C 6.4 km/h
19.08.2018 20:20 26.3 C 50 % 1019.6 hPa 0.0 mm 4.4 km/h W 265 0 min 0.0 UV-I 9.0 W/m 26.3 C 11.3 km/h
19.08.2018 20:10 26.6 C 49 % 1019.6 hPa 0.0 mm 4.5 km/h W-SW 242 0 min 0.0 UV-I 16.0 W/m 26.6 C 8.0 km/h
19.08.2018 20:00 26.9 C 48 % 1019.5 hPa 0.0 mm 4.8 km/h W 278 0 min 0.0 UV-I 23.0 W/m 26.9 C 12.9 km/h
19.08.2018 19:50 27.2 C 48 % 1019.4 hPa 0.0 mm 5.3 km/h W 260 0 min 0.0 UV-I 37.0 W/m 27.2 C 11.3 km/h
19.08.2018 19:40 27.5 C 47 % 1019.4 hPa 0.0 mm 6.4 km/h W 271 0 min 0.0 UV-I 35.0 W/m 27.5 C 12.9 km/h
19.08.2018 19:30 27.8 C 47 % 1019.3 hPa 0.0 mm 6.1 km/h W 281 0 min 0.0 UV-I 76.0 W/m 27.8 C 14.5 km/h
19.08.2018 19:20 28.1 C 46 % 1019.3 hPa 0.0 mm 7.2 km/h W 271 10 min 0.0 UV-I 105.0 W/m 28.0 C 12.9 km/h
19.08.2018 19:10 28.4 C 45 % 1019.1 hPa 0.0 mm 7.6 km/h W-NW 283 10 min 0.0 UV-I 134.0 W/m 28.2 C 14.5 km/h
19.08.2018 19:00 28.7 C 46 % 1019.2 hPa 0.0 mm 7.1 km/h NW 317 10 min 0.0 UV-I 167.0 W/m 28.6 C 14.5 km/h
19.08.2018 18:50 28.9 C 45 % 1019.3 hPa 0.0 mm 7.4 km/h N-NW 330 10 min 0.5 UV-I 197.0 W/m 28.8 C 17.7 km/h
19.08.2018 18:40 29.1 C 45 % 1019.3 hPa 0.0 mm 6.5 km/h NW 309 10 min 0.7 UV-I 227.0 W/m 29.1 C 14.5 km/h
19.08.2018 18:30 29.2 C 44 % 1019.5 hPa 0.0 mm 7.4 km/h SW 226 10 min 0.8 UV-I 257.0 W/m 29.1 C 17.7 km/h
19.08.2018 18:20 29.2 C 43 % 1019.4 hPa 0.0 mm 5.4 km/h W 266 10 min 0.9 UV-I 285.0 W/m 29.2 C 12.9 km/h
19.08.2018 18:10 29.2 C 43 % 1019.4 hPa 0.0 mm 6.7 km/h W-SW 254 10 min 1.1 UV-I 313.0 W/m 29.2 C 16.1 km/h
19.08.2018 18:00 29.3 C 45 % 1019.3 hPa 0.0 mm 6.9 km/h W-SW 251 10 min 1.2 UV-I 339.0 W/m 29.2 C 16.1 km/h
19.08.2018 17:50 29.6 C 43 % 1019.3 hPa 0.0 mm 7.1 km/h W-NW 282 10 min 1.4 UV-I 367.0 W/m 29.5 C 16.1 km/h
19.08.2018 17:40 29.3 C 45 % 1019.3 hPa 0.0 mm 3.9 km/h N-NW 333 10 min 1.6 UV-I 392.0 W/m 29.3 C 14.5 km/h
19.08.2018 17:30 29.6 C 44 % 1019.3 hPa 0.0 mm 5.3 km/h W-NW 294 10 min 1.8 UV-I 432.0 W/m 29.6 C 12.9 km/h
19.08.2018 17:20 29.6 C 45 % 1019.3 hPa 0.0 mm 6.0 km/h NW 309 10 min 2.0 UV-I 457.0 W/m 29.6 C 12.9 km/h
19.08.2018 17:10 29.6 C 45 % 1019.4 hPa 0.0 mm 5.6 km/h W-SW 254 10 min 2.2 UV-I 478.0 W/m 29.6 C 12.9 km/h
19.08.2018 17:00 29.7 C 44 % 1019.4 hPa 0.0 mm 6.1 km/h W-SW 243 10 min 2.3 UV-I 494.0 W/m 29.7 C 12.9 km/h
19.08.2018 16:50 29.9 C 43 % 1019.5 hPa 0.0 mm 5.3 km/h SW 220 10 min 2.6 UV-I 531.0 W/m 29.9 C 12.9 km/h
19.08.2018 16:40 29.8 C 45 % 1019.5 hPa 0.0 mm 4.0 km/h W 265 10 min 2.8 UV-I 550.0 W/m 29.8 C 11.3 km/h
19.08.2018 16:30 29.6 C 43 % 1019.7 hPa 0.0 mm 6.0 km/h W 277 10 min 3.1 UV-I 577.0 W/m 29.6 C 14.5 km/h
19.08.2018 16:20 29.6 C 45 % 1019.7 hPa 0.0 mm 6.1 km/h W-NW 296 10 min 3.3 UV-I 601.0 W/m 29.6 C 14.5 km/h
19.08.2018 16:10 29.8 C 44 % 1019.8 hPa 0.0 mm 5.9 km/h SW 234 10 min 3.6 UV-I 619.0 W/m 29.8 C 12.9 km/h
19.08.2018 16:00 29.9 C 45 % 1019.8 hPa 0.0 mm 6.7 km/h W-NW 286 10 min 3.7 UV-I 629.0 W/m 29.9 C 12.9 km/h
19.08.2018 15:50 29.8 C 43 % 1019.9 hPa 0.0 mm 5.7 km/h W 259 10 min 4.0 UV-I 663.0 W/m 29.8 C 14.5 km/h
19.08.2018 15:40 29.6 C 44 % 1020.0 hPa 0.0 mm 7.6 km/h NW 314 10 min 4.2 UV-I 687.0 W/m 29.5 C 16.1 km/h
19.08.2018 15:30 29.6 C 44 % 1020.2 hPa 0.0 mm 6.7 km/h W-SW 255 10 min 4.4 UV-I 703.0 W/m 29.6 C 14.5 km/h
19.08.2018 15:20 29.0 C 47 % 1020.2 hPa 0.0 mm 7.1 km/h N-NW 346 10 min 4.6 UV-I 721.0 W/m 28.9 C 17.7 km/h
19.08.2018 15:10 29.6 C 44 % 1020.3 hPa 0.0 mm 6.4 km/h W-NW 282 10 min 4.8 UV-I 721.0 W/m 29.6 C 12.9 km/h
19.08.2018 15:00 29.3 C 47 % 1020.4 hPa 0.0 mm 4.2 km/h N-NW 346 10 min 4.9 UV-I 751.0 W/m 29.3 C 12.9 km/h
19.08.2018 14:50 28.7 C 47 % 1020.5 hPa 0.0 mm 5.5 km/h N-NW 342 10 min 5.1 UV-I 766.0 W/m 28.7 C 14.5 km/h
19.08.2018 14:40 29.2 C 46 % 1020.6 hPa 0.0 mm 4.8 km/h SW 221 10 min 5.4 UV-I 770.0 W/m 29.2 C 12.9 km/h
19.08.2018 14:30 29.2 C 47 % 1020.7 hPa 0.0 mm 7.9 km/h NW 309 10 min 5.5 UV-I 780.0 W/m 29.0 C 16.1 km/h
19.08.2018 14:20 28.9 C 48 % 1020.8 hPa 0.0 mm 6.5 km/h NW 318 10 min 5.4 UV-I 798.0 W/m 28.9 C 16.1 km/h
19.08.2018 14:10 28.2 C 49 % 1020.8 hPa 0.0 mm 6.5 km/h W 281 10 min 5.4 UV-I 821.0 W/m 28.2 C 14.5 km/h
19.08.2018 14:00 27.8 C 51 % 1020.8 hPa 0.0 mm 6.8 km/h NW 320 10 min 4.6 UV-I 828.0 W/m 27.7 C 14.5 km/h
19.08.2018 13:50 27.4 C 57 % 1020.8 hPa 0.0 mm 3.2 km/h N-NO 17 10 min 5.8 UV-I 817.0 W/m 27.4 C 14.5 km/h
19.08.2018 13:40 27.7 C 51 % 1020.9 hPa 0.0 mm 6.0 km/h NW 322 0 min 4.9 UV-I 401.0 W/m 27.7 C 16.1 km/h
19.08.2018 13:30 27.6 C 50 % 1021.0 hPa 0.0 mm 6.3 km/h W 259 10 min 5.5 UV-I 788.0 W/m 27.6 C 12.9 km/h
19.08.2018 13:20 27.7 C 52 % 1021.0 hPa 0.0 mm 3.8 km/h W 273 10 min 5.7 UV-I 770.0 W/m 27.7 C 11.3 km/h
19.08.2018 13:10 27.3 C 51 % 1021.1 hPa 0.0 mm 5.5 km/h W 281 10 min 5.8 UV-I 777.0 W/m 27.3 C 12.9 km/h
19.08.2018 13:00 27.4 C 52 % 1021.2 hPa 0.0 mm 5.5 km/h W-SW 257 10 min 5.6 UV-I 749.0 W/m 27.4 C 12.9 km/h
19.08.2018 12:50 27.1 C 54 % 1021.3 hPa 0.0 mm 2.4 km/h N-NW 341 10 min 5.5 UV-I 754.0 W/m 27.1 C 8.0 km/h
19.08.2018 12:40 26.3 C 54 % 1021.4 hPa 0.0 mm 4.8 km/h SO 141 10 min 5.4 UV-I 749.0 W/m 26.3 C 11.3 km/h
19.08.2018 12:30 25.7 C 54 % 1021.5 hPa 0.0 mm 3.1 km/h NO 44 10 min 5.3 UV-I 740.0 W/m 25.7 C 9.7 km/h
19.08.2018 12:20 26.0 C 56 % 1021.6 hPa 0.0 mm 3.6 km/h N-NW 341 10 min 5.1 UV-I 729.0 W/m 26.0 C 8.0 km/h
19.08.2018 12:10 25.8 C 57 % 1021.7 hPa 0.0 mm 4.4 km/h NW 323 10 min 5.0 UV-I 715.0 W/m 25.8 C 12.9 km/h
19.08.2018 12:00 25.8 C 57 % 1021.8 hPa 0.0 mm 4.9 km/h SW 228 10 min 4.8 UV-I 700.0 W/m 25.8 C 12.9 km/h
19.08.2018 11:50 25.7 C 58 % 1021.9 hPa 0.0 mm 2.6 km/h N-NW 342 10 min 4.7 UV-I 686.0 W/m 25.7 C 6.4 km/h
19.08.2018 11:40 25.3 C 58 % 1022.1 hPa 0.0 mm 2.3 km/h W-SW 252 10 min 4.5 UV-I 687.0 W/m 25.3 C 6.4 km/h
19.08.2018 11:30 25.2 C 59 % 1022.1 hPa 0.0 mm 2.8 km/h N-NO 33 10 min 4.2 UV-I 657.0 W/m 25.2 C 6.4 km/h
19.08.2018 11:20 24.8 C 60 % 1022.2 hPa 0.0 mm 1.9 km/h N 10 10 min 4.0 UV-I 642.0 W/m 24.8 C 4.8 km/h
19.08.2018 11:10 24.5 C 61 % 1022.3 hPa 0.0 mm 2.8 km/h NO 48 10 min 3.8 UV-I 629.0 W/m 24.5 C 9.7 km/h
19.08.2018 11:00 24.3 C 63 % 1022.4 hPa 0.0 mm 2.9 km/h W-NW 288 10 min 3.6 UV-I 612.0 W/m 24.3 C 6.4 km/h
19.08.2018 10:50 23.9 C 63 % 1022.4 hPa 0.0 mm 4.3 km/h NW 323 10 min 3.3 UV-I 585.0 W/m 23.9 C 12.9 km/h
19.08.2018 10:40 23.7 C 65 % 1022.6 hPa 0.0 mm 2.4 km/h NO 52 10 min 3.1 UV-I 566.0 W/m 23.7 C 8.0 km/h
19.08.2018 10:30 23.1 C 66 % 1022.7 hPa 0.0 mm 2.4 km/h S-SO 156 10 min 2.9 UV-I 541.0 W/m 23.1 C 6.4 km/h
19.08.2018 10:20 22.9 C 67 % 1022.6 hPa 0.0 mm 2.4 km/h NW 325 10 min 2.7 UV-I 517.0 W/m 22.9 C 4.8 km/h
19.08.2018 10:10 22.3 C 69 % 1022.6 hPa 0.0 mm 3.0 km/h N-NW 338 10 min 2.4 UV-I 492.0 W/m 22.3 C 8.0 km/h
19.08.2018 10:00 22.1 C 69 % 1022.5 hPa 0.0 mm 1.4 km/h W-NW 284 10 min 2.2 UV-I 466.0 W/m 22.1 C 3.2 km/h
19.08.2018 09:50 21.9 C 71 % 1022.6 hPa 0.0 mm 1.9 km/h NW 304 10 min 2.0 UV-I 439.0 W/m 21.9 C 4.8 km/h
19.08.2018 09:40 21.6 C 74 % 1022.6 hPa 0.0 mm 1.8 km/h W-NW 300 10 min 1.8 UV-I 411.0 W/m 21.6 C 4.8 km/h
19.08.2018 09:30 21.4 C 74 % 1022.6 hPa 0.0 mm 1.5 km/h W-NW 299 10 min 1.5 UV-I 371.0 W/m 21.4 C 4.8 km/h
19.08.2018 09:20 20.9 C 76 % 1022.5 hPa 0.0 mm 1.6 km/h O-NO 57 10 min 1.4 UV-I 327.0 W/m 20.9 C 4.8 km/h
19.08.2018 09:10 20.5 C 77 % 1022.5 hPa 0.0 mm 1.2 km/h NW 312 10 min 1.2 UV-I 330.0 W/m 20.5 C 3.2 km/h
19.08.2018 09:00 20.0 C 80 % 1022.6 hPa 0.0 mm 0.9 km/h NW 312 10 min 1.1 UV-I 302.0 W/m 20.0 C 3.2 km/h
19.08.2018 08:50 19.7 C 83 % 1022.5 hPa 0.0 mm 1.2 km/h NW 312 10 min 0.9 UV-I 274.0 W/m 19.7 C 3.2 km/h
19.08.2018 08:40 19.3 C 85 % 1022.5 hPa 0.0 mm 0.2 km/h O-NO 78 10 min 0.8 UV-I 255.0 W/m 19.3 C 1.6 km/h
19.08.2018 08:30 18.7 C 86 % 1022.5 hPa 0.0 mm 0.0 km/h O-NO 78 10 min 0.6 UV-I 199.0 W/m 18.7 C 0.0 km/h
19.08.2018 08:20 18.3 C 90 % 1022.6 hPa 0.0 mm 0.3 km/h O-NO 78 0 min 0.5 UV-I 113.0 W/m 18.3 C 1.6 km/h
19.08.2018 08:10 18.1 C 91 % 1022.4 hPa 0.0 mm 0.0 km/h O-NO 78 0 min 0.0 UV-I 111.0 W/m 18.1 C 1.6 km/h
19.08.2018 08:00 17.8 C 92 % 1022.5 hPa 0.0 mm 0.1 km/h O-NO 78 0 min 0.0 UV-I 100.0 W/m 17.8 C 1.6 km/h
19.08.2018 07:50 17.6 C 92 % 1022.4 hPa 0.0 mm 0.0 km/h O-NO 78 0 min 0.0 UV-I 69.0 W/m 17.6 C 1.6 km/h
19.08.2018 07:40 17.5 C 92 % 1022.3 hPa 0.0 mm 0.1 km/h O-NO 78 0 min 0.0 UV-I 49.0 W/m 17.5 C 1.6 km/h
19.08.2018 07:30 17.4 C 92 % 1022.2 hPa 0.0 mm 0.6 km/h O-NO 78 0 min 0.0 UV-I 37.0 W/m 17.4 C 3.2 km/h
19.08.2018 07:20 17.3 C 92 % 1022.2 hPa 0.0 mm 1.1 km/h O-NO 78 0 min 0.0 UV-I 32.0 W/m 17.3 C 3.2 km/h
19.08.2018 07:10 17.1 C 93 % 1022.1 hPa 0.0 mm 0.9 km/h O-NO 78 0 min 0.0 UV-I 33.0 W/m 17.1 C 3.2 km/h
19.08.2018 07:00 16.8 C 93 % 1022.1 hPa 0.0 mm 0.1 km/h O-NO 78 0 min 0.0 UV-I 23.0 W/m 16.8 C 1.6 km/h
19.08.2018 06:50 17.0 C 93 % 1022.1 hPa 0.0 mm 0.4 km/h O-NO 78 0 min 0.0 UV-I 12.0 W/m 17.0 C 1.6 km/h
19.08.2018 06:40 17.2 C 92 % 1022.1 hPa 0.0 mm 0.2 km/h O-NO 78 0 min 0.0 UV-I 7.0 W/m 17.2 C 1.6 km/h
19.08.2018 06:30 17.1 C 93 % 1022.0 hPa 0.0 mm 0.7 km/h O-NO 78 0 min 0.0 UV-I 0.0 W/m 17.1 C 3.2 km/h
19.08.2018 06:20 17.1 C 93 % 1021.9 hPa 0.0 mm 0.3 km/h O-NO 78 0 min 0.0 UV-I 0.0 W/m 17.1 C 1.6 km/h
19.08.2018 06:10 16.9 C 93 % 1021.9 hPa 0.0 mm 0.1 km/h O-NO 78 0 min 0.0 UV-I 0.0 W/m 16.9 C 1.6 km/h
19.08.2018 06:00 16.9 C 93 % 1021.9 hPa 0.0 mm 0.8 km/h O-NO 78 0 min 0.0 UV-I 0.0 W/m 16.9 C 1.6 km/h
_ Min-Zeit 05:10 15:50 19:10 - 07:50 - - - - - 05:10 08:30
Minimum _ 16.2 C 43 % 1019.1 hPa - 0.0 km/h - - - - - 16.2 C 0.0 km/h
_ Max-Zeit 16:00 06:00 10:30 06:00 14:30 - - 08:30 13:10 14:00 16:50 15:20
Maximum _ 29.9 C 93 % 1022.7 hPa 0.0 mm 7.9 km/h
NW
- - 10 min 5.8 UV-I 828.0 W/m 29.9 C 17.7 km/h
N-NW
Durchschnitt _ 22.4 C 69 % 1020.8 hPa #0.0 mm 2.7 km/h W - #0 min. 0.0 UV-I 0.0 W/m 22.4 C 6.9 km/h